sensor_id;sensor_type;location;lat;lon;timestamp;P1;durP1;ratioP1;P2;durP2;ratioP2
50946;SDS011;36955;47.416;7.716;2022-10-17T00:01:38;38.60;;;18.77;;
50946;SDS011;36955;47.416;7.716;2022-10-17T00:04:04;41.60;;;17.80;;
50946;SDS011;36955;47.416;7.716;2022-10-17T00:06:30;16.50;;;7.05;;
50946;SDS011;36955;47.416;7.716;2022-10-17T00:08:56;19.13;;;7.50;;
50946;SDS011;36955;47.416;7.716;2022-10-17T00:11:22;29.50;;;11.33;;
50946;SDS011;36955;47.416;7.716;2022-10-17T00:13:49;8.50;;;3.83;;
50946;SDS011;36955;47.416;7.716;2022-10-17T00:16:22;12.90;;;4.90;;
50946;SDS011;36955;47.416;7.716;2022-10-17T00:18:50;17.08;;;6.03;;
50946;SDS011;36955;47.416;7.716;2022-10-17T00:21:16;9.45;;;3.35;;
50946;SDS011;36955;47.416;7.716;2022-10-17T00:23:43;6.35;;;3.15;;
50946;SDS011;36955;47.416;7.716;2022-10-17T00:26:10;7.75;;;3.67;;
50946;SDS011;36955;47.416;7.716;2022-10-17T00:28:37;9.82;;;3.60;;
50946;SDS011;36955;47.416;7.716;2022-10-17T00:31:04;8.27;;;2.90;;
50946;SDS011;36955;47.416;7.716;2022-10-17T00:33:32;4.68;;;2.33;;
50946;SDS011;36955;47.416;7.716;2022-10-17T00:36:07;4.30;;;2.42;;
50946;SDS011;36955;47.416;7.716;2022-10-17T00:38:38;4.38;;;2.08;;
50946;SDS011;36955;47.416;7.716;2022-10-17T00:41:06;4.82;;;2.40;;
50946;SDS011;36955;47.416;7.716;2022-10-17T00:46:20;5.20;;;2.10;;
50946;SDS011;36955;47.416;7.716;2022-10-17T00:48:48;4.07;;;3.28;;
50946;SDS011;36955;47.416;7.716;2022-10-17T00:51:16;2.60;;;2.10;;
50946;SDS011;36955;47.416;7.716;2022-10-17T00:53:47;7.40;;;2.50;;
50946;SDS011;36955;47.416;7.716;2022-10-17T00:56:14;2.58;;;2.10;;
50946;SDS011;36955;47.416;7.716;2022-10-17T00:58:40;5.30;;;2.15;;
50946;SDS011;36955;47.416;7.716;2022-10-17T01:01:06;2.88;;;2.00;;
50946;SDS011;36955;47.416;7.716;2022-10-17T01:03:32;4.88;;;2.78;;
50946;SDS011;36955;47.416;7.716;2022-10-17T01:05:58;4.85;;;2.75;;
50946;SDS011;36955;47.416;7.716;2022-10-17T01:08:24;4.70;;;2.10;;
50946;SDS011;36955;47.416;7.716;2022-10-17T01:10:57;4.47;;;2.10;;
50946;SDS011;36955;47.416;7.716;2022-10-17T01:13:30;4.90;;;2.35;;
50946;SDS011;36955;47.416;7.716;2022-10-17T01:19:34;3.40;;;2.40;;
50946;SDS011;36955;47.416;7.716;2022-10-17T01:33:09;11.90;;;3.15;;
50946;SDS011;36955;47.416;7.716;2022-10-17T01:35:50;4.22;;;2.15;;
50946;SDS011;36955;47.416;7.716;2022-10-17T01:38:22;1.98;;;1.77;;
50946;SDS011;36955;47.416;7.716;2022-10-17T01:43:27;6.20;;;2.17;;
50946;SDS011;36955;47.416;7.716;2022-10-17T01:46:08;4.45;;;2.20;;
50946;SDS011;36955;47.416;7.716;2022-10-17T01:48:36;2.58;;;2.00;;
50946;SDS011;36955;47.416;7.716;2022-10-17T01:51:07;7.38;;;2.10;;
50946;SDS011;36955;47.416;7.716;2022-10-17T01:53:46;6.13;;;2.00;;
50946;SDS011;36955;47.416;7.716;2022-10-17T01:56:18;2.50;;;1.85;;
50946;SDS011;36955;47.416;7.716;2022-10-17T01:58:50;2.63;;;2.13;;
50946;SDS011;36955;47.416;7.716;2022-10-17T02:01:20;3.28;;;2.00;;
50946;SDS011;36955;47.416;7.716;2022-10-17T02:03:48;4.22;;;1.83;;
50946;SDS011;36955;47.416;7.716;2022-10-17T02:06:16;5.38;;;2.20;;
50946;SDS011;36955;47.416;7.716;2022-10-17T02:08:43;3.78;;;1.90;;
50946;SDS011;36955;47.416;7.716;2022-10-17T02:11:17;2.15;;;1.80;;
50946;SDS011;36955;47.416;7.716;2022-10-17T02:16:51;2.85;;;2.08;;
50946;SDS011;36955;47.416;7.716;2022-10-17T02:21:52;2.00;;;1.80;;
50946;SDS011;36955;47.416;7.716;2022-10-17T02:27:39;6.10;;;2.08;;
50946;SDS011;36955;47.416;7.716;2022-10-17T02:32:38;4.53;;;2.00;;
50946;SDS011;36955;47.416;7.716;2022-10-17T02:35:17;4.47;;;2.25;;
50946;SDS011;36955;47.416;7.716;2022-10-17T02:37:45;10.05;;;2.22;;
50946;SDS011;36955;47.416;7.716;2022-10-17T02:40:13;2.03;;;1.80;;
50946;SDS011;36955;47.416;7.716;2022-10-17T02:42:42;3.05;;;1.80;;
50946;SDS011;36955;47.416;7.716;2022-10-17T02:45:10;4.32;;;1.92;;
50946;SDS011;36955;47.416;7.716;2022-10-17T02:53:05;4.97;;;1.98;;
50946;SDS011;36955;47.416;7.716;2022-10-17T02:55:44;5.38;;;2.20;;
50946;SDS011;36955;47.416;7.716;2022-10-17T02:58:18;3.40;;;2.03;;
50946;SDS011;36955;47.416;7.716;2022-10-17T03:00:47;3.63;;;2.03;;
50946;SDS011;36955;47.416;7.716;2022-10-17T03:03:19;3.40;;;1.80;;
50946;SDS011;36955;47.416;7.716;2022-10-17T03:05:53;3.00;;;2.13;;
50946;SDS011;36955;47.416;7.716;2022-10-17T03:08:19;4.25;;;2.10;;
50946;SDS011;36955;47.416;7.716;2022-10-17T03:10:46;4.72;;;2.20;;
50946;SDS011;36955;47.416;7.716;2022-10-17T03:13:13;2.30;;;2.10;;
50946;SDS011;36955;47.416;7.716;2022-10-17T03:15:39;7.63;;;2.63;;
50946;SDS011;36955;47.416;7.716;2022-10-17T03:18:05;3.78;;;1.90;;
50946;SDS011;36955;47.416;7.716;2022-10-17T03:20:31;3.35;;;2.10;;
50946;SDS011;36955;47.416;7.716;2022-10-17T03:22:58;3.40;;;1.92;;
50946;SDS011;36955;47.416;7.716;2022-10-17T03:25:24;4.35;;;2.20;;
50946;SDS011;36955;47.416;7.716;2022-10-17T03:27:50;3.63;;;2.00;;
50946;SDS011;36955;47.416;7.716;2022-10-17T03:30:17;7.47;;;2.20;;
50946;SDS011;36955;47.416;7.716;2022-10-17T03:32:43;3.85;;;2.10;;
50946;SDS011;36955;47.416;7.716;2022-10-17T03:35:09;4.30;;;2.03;;
50946;SDS011;36955;47.416;7.716;2022-10-17T03:37:35;4.82;;;1.92;;
50946;SDS011;36955;47.416;7.716;2022-10-17T03:40:01;2.85;;;1.90;;
50946;SDS011;36955;47.416;7.716;2022-10-17T03:42:28;4.82;;;2.35;;
50946;SDS011;36955;47.416;7.716;2022-10-17T03:44:55;3.75;;;2.15;;
50946;SDS011;36955;47.416;7.716;2022-10-17T03:47:21;2.13;;;1.83;;
50946;SDS011;36955;47.416;7.716;2022-10-17T03:49:47;4.85;;;1.90;;
50946;SDS011;36955;47.416;7.716;2022-10-17T03:52:13;2.60;;;2.00;;
50946;SDS011;36955;47.416;7.716;2022-10-17T03:54:39;5.63;;;2.38;;
50946;SDS011;36955;47.416;7.716;2022-10-17T03:57:06;3.95;;;2.13;;
50946;SDS011;36955;47.416;7.716;2022-10-17T03:59:32;2.85;;;2.10;;
50946;SDS011;36955;47.416;7.716;2022-10-17T04:01:58;3.28;;;2.35;;
50946;SDS011;36955;47.416;7.716;2022-10-17T04:04:24;3.83;;;2.00;;
50946;SDS011;36955;47.416;7.716;2022-10-17T04:06:50;2.65;;;1.90;;
50946;SDS011;36955;47.416;7.716;2022-10-17T04:09:16;1.95;;;1.75;;
50946;SDS011;36955;47.416;7.716;2022-10-17T04:11:42;2.50;;;2.13;;
50946;SDS011;36955;47.416;7.716;2022-10-17T04:14:08;2.22;;;2.00;;
50946;SDS011;36955;47.416;7.716;2022-10-17T04:16:35;7.68;;;5.15;;
50946;SDS011;36955;47.416;7.716;2022-10-17T04:19:01;16.73;;;11.73;;
50946;SDS011;36955;47.416;7.716;2022-10-17T04:21:27;33.30;;;21.35;;
50946;SDS011;36955;47.416;7.716;2022-10-17T04:23:55;31.15;;;16.08;;
50946;SDS011;36955;47.416;7.716;2022-10-17T04:26:22;63.72;;;31.05;;
50946;SDS011;36955;47.416;7.716;2022-10-17T04:28:49;46.42;;;22.13;;
50946;SDS011;36955;47.416;7.716;2022-10-17T04:31:16;25.25;;;13.52;;
50946;SDS011;36955;47.416;7.716;2022-10-17T04:33:43;7.32;;;4.18;;
50946;SDS011;36955;47.416;7.716;2022-10-17T04:36:13;9.23;;;4.72;;
50946;SDS011;36955;47.416;7.716;2022-10-17T04:38:40;6.75;;;4.28;;
50946;SDS011;36955;47.416;7.716;2022-10-17T04:41:07;4.93;;;3.05;;
50946;SDS011;36955;47.416;7.716;2022-10-17T04:43:36;6.63;;;3.40;;
50946;SDS011;36955;47.416;7.716;2022-10-17T04:46:06;4.20;;;3.15;;
50946;SDS011;36955;47.416;7.716;2022-10-17T04:48:33;5.47;;;3.45;;
50946;SDS011;36955;47.416;7.716;2022-10-17T04:51:00;5.50;;;3.30;;
50946;SDS011;36955;47.416;7.716;2022-10-17T04:53:33;9.15;;;2.60;;
50946;SDS011;36955;47.416;7.716;2022-10-17T04:55:59;4.03;;;2.20;;
50946;SDS011;36955;47.416;7.716;2022-10-17T04:58:29;4.38;;;2.53;;
50946;SDS011;36955;47.416;7.716;2022-10-17T05:00:55;3.05;;;2.58;;
50946;SDS011;36955;47.416;7.716;2022-10-17T05:03:21;4.93;;;2.30;;
50946;SDS011;36955;47.416;7.716;2022-10-17T05:05:47;3.00;;;2.17;;
50946;SDS011;36955;47.416;7.716;2022-10-17T05:08:13;3.38;;;2.10;;
50946;SDS011;36955;47.416;7.716;2022-10-17T05:10:40;2.17;;;1.92;;
50946;SDS011;36955;47.416;7.716;2022-10-17T05:13:08;3.53;;;1.80;;
50946;SDS011;36955;47.416;7.716;2022-10-17T05:15:35;5.15;;;1.83;;
50946;SDS011;36955;47.416;7.716;2022-10-17T05:18:02;2.38;;;2.00;;
50946;SDS011;36955;47.416;7.716;2022-10-17T05:20:29;1.95;;;1.80;;
50946;SDS011;36955;47.416;7.716;2022-10-17T05:22:57;4.90;;;2.17;;
50946;SDS011;36955;47.416;7.716;2022-10-17T05:25:24;1.90;;;1.80;;
50946;SDS011;36955;47.416;7.716;2022-10-17T05:27:50;6.65;;;2.78;;
50946;SDS011;36955;47.416;7.716;2022-10-17T05:30:16;2.70;;;1.98;;
50946;SDS011;36955;47.416;7.716;2022-10-17T05:32:42;3.35;;;1.90;;
50946;SDS011;36955;47.416;7.716;2022-10-17T05:35:08;2.95;;;2.03;;
50946;SDS011;36955;47.416;7.716;2022-10-17T05:37:34;6.63;;;2.10;;
50946;SDS011;36955;47.416;7.716;2022-10-17T05:40:00;3.47;;;2.10;;
50946;SDS011;36955;47.416;7.716;2022-10-17T05:42:26;3.95;;;1.92;;
50946;SDS011;36955;47.416;7.716;2022-10-17T05:44:52;2.80;;;2.10;;
50946;SDS011;36955;47.416;7.716;2022-10-17T05:47:18;5.53;;;2.20;;
50946;SDS011;36955;47.416;7.716;2022-10-17T05:49:44;2.30;;;2.05;;
50946;SDS011;36955;47.416;7.716;2022-10-17T05:52:10;7.27;;;2.30;;
50946;SDS011;36955;47.416;7.716;2022-10-17T05:54:36;6.75;;;2.20;;
50946;SDS011;36955;47.416;7.716;2022-10-17T05:57:02;3.72;;;2.53;;
50946;SDS011;36955;47.416;7.716;2022-10-17T05:59:29;3.85;;;1.92;;
50946;SDS011;36955;47.416;7.716;2022-10-17T06:01:55;3.95;;;2.03;;
50946;SDS011;36955;47.416;7.716;2022-10-17T06:04:21;3.78;;;2.00;;
50946;SDS011;36955;47.416;7.716;2022-10-17T06:06:47;2.65;;;2.15;;
50946;SDS011;36955;47.416;7.716;2022-10-17T06:09:13;4.20;;;2.30;;
50946;SDS011;36955;47.416;7.716;2022-10-17T06:11:39;2.78;;;2.20;;
50946;SDS011;36955;47.416;7.716;2022-10-17T06:14:05;4.03;;;1.90;;
50946;SDS011;36955;47.416;7.716;2022-10-17T06:16:31;3.17;;;2.15;;
50946;SDS011;36955;47.416;7.716;2022-10-17T06:18:57;2.92;;;1.95;;
50946;SDS011;36955;47.416;7.716;2022-10-17T06:21:24;4.30;;;2.40;;
50946;SDS011;36955;47.416;7.716;2022-10-17T06:23:52;3.92;;;1.98;;
50946;SDS011;36955;47.416;7.716;2022-10-17T06:26:18;5.40;;;1.85;;
50946;SDS011;36955;47.416;7.716;2022-10-17T06:28:44;5.03;;;2.10;;
50946;SDS011;36955;47.416;7.716;2022-10-17T06:31:12;3.10;;;2.27;;
50946;SDS011;36955;47.416;7.716;2022-10-17T06:33:39;3.72;;;2.15;;
50946;SDS011;36955;47.416;7.716;2022-10-17T06:36:06;2.85;;;2.20;;
50946;SDS011;36955;47.416;7.716;2022-10-17T06:38:34;4.80;;;2.40;;
50946;SDS011;36955;47.416;7.716;2022-10-17T06:41:07;3.72;;;2.50;;
50946;SDS011;36955;47.416;7.716;2022-10-17T06:43:36;2.05;;;1.88;;
50946;SDS011;36955;47.416;7.716;2022-10-17T06:46:03;4.45;;;2.33;;
50946;SDS011;36955;47.416;7.716;2022-10-17T06:48:29;4.88;;;2.50;;
50946;SDS011;36955;47.416;7.716;2022-10-17T06:51:02;4.45;;;2.83;;
50946;SDS011;36955;47.416;7.716;2022-10-17T06:53:30;4.45;;;2.50;;
50946;SDS011;36955;47.416;7.716;2022-10-17T06:55:58;4.82;;;2.70;;
50946;SDS011;36955;47.416;7.716;2022-10-17T06:58:24;3.65;;;2.60;;
50946;SDS011;36955;47.416;7.716;2022-10-17T07:00:50;7.43;;;2.78;;
50946;SDS011;36955;47.416;7.716;2022-10-17T07:03:16;3.20;;;2.05;;
50946;SDS011;36955;47.416;7.716;2022-10-17T07:05:42;4.82;;;2.17;;
50946;SDS011;36955;47.416;7.716;2022-10-17T07:08:16;5.07;;;2.22;;
50946;SDS011;36955;47.416;7.716;2022-10-17T07:10:42;4.50;;;2.30;;
50946;SDS011;36955;47.416;7.716;2022-10-17T07:13:08;7.78;;;3.10;;
50946;SDS011;36955;47.416;7.716;2022-10-17T07:15:35;3.63;;;2.42;;
50946;SDS011;36955;47.416;7.716;2022-10-17T07:18:02;3.70;;;2.55;;
50946;SDS011;36955;47.416;7.716;2022-10-17T07:20:28;6.95;;;2.90;;
50946;SDS011;36955;47.416;7.716;2022-10-17T07:22:54;6.57;;;3.55;;
50946;SDS011;36955;47.416;7.716;2022-10-17T07:25:20;6.03;;;2.53;;
50946;SDS011;36955;47.416;7.716;2022-10-17T07:27:49;6.07;;;3.13;;
50946;SDS011;36955;47.416;7.716;2022-10-17T07:30:17;6.72;;;3.10;;
50946;SDS011;36955;47.416;7.716;2022-10-17T07:32:43;10.98;;;2.28;;
50946;SDS011;36955;47.416;7.716;2022-10-17T07:35:10;7.20;;;2.42;;
50946;SDS011;36955;47.416;7.716;2022-10-17T07:37:36;3.42;;;2.22;;
50946;SDS011;36955;47.416;7.716;2022-10-17T07:40:03;6.07;;;2.55;;
50946;SDS011;36955;47.416;7.716;2022-10-17T07:42:31;7.32;;;2.30;;
50946;SDS011;36955;47.416;7.716;2022-10-17T07:45:00;6.78;;;2.92;;
50946;SDS011;36955;47.416;7.716;2022-10-17T07:47:26;2.85;;;2.17;;
50946;SDS011;36955;47.416;7.716;2022-10-17T07:49:52;2.75;;;2.22;;
50946;SDS011;36955;47.416;7.716;2022-10-17T07:52:18;2.85;;;2.00;;
50946;SDS011;36955;47.416;7.716;2022-10-17T07:54:44;2.15;;;1.80;;
50946;SDS011;36955;47.416;7.716;2022-10-17T07:57:10;2.78;;;2.00;;
50946;SDS011;36955;47.416;7.716;2022-10-17T07:59:36;2.78;;;2.10;;
50946;SDS011;36955;47.416;7.716;2022-10-17T08:02:03;3.35;;;2.40;;
50946;SDS011;36955;47.416;7.716;2022-10-17T08:04:29;2.97;;;2.03;;
50946;SDS011;36955;47.416;7.716;2022-10-17T08:06:55;4.55;;;1.85;;
50946;SDS011;36955;47.416;7.716;2022-10-17T08:09:21;4.63;;;1.90;;
50946;SDS011;36955;47.416;7.716;2022-10-17T08:11:47;5.05;;;1.92;;
50946;SDS011;36955;47.416;7.716;2022-10-17T08:14:13;3.10;;;2.10;;
50946;SDS011;36955;47.416;7.716;2022-10-17T08:16:39;3.65;;;2.30;;
50946;SDS011;36955;47.416;7.716;2022-10-17T08:19:05;4.82;;;1.90;;
50946;SDS011;36955;47.416;7.716;2022-10-17T08:21:31;3.28;;;1.85;;
50946;SDS011;36955;47.416;7.716;2022-10-17T08:23:57;4.15;;;2.10;;
50946;SDS011;36955;47.416;7.716;2022-10-17T08:26:23;2.00;;;1.80;;
50946;SDS011;36955;47.416;7.716;2022-10-17T08:28:49;2.50;;;2.08;;
50946;SDS011;36955;47.416;7.716;2022-10-17T08:31:16;4.97;;;2.00;;
50946;SDS011;36955;47.416;7.716;2022-10-17T08:33:44;4.30;;;2.00;;
50946;SDS011;36955;47.416;7.716;2022-10-17T08:36:12;1.92;;;1.80;;
50946;SDS011;36955;47.416;7.716;2022-10-17T08:38:39;3.90;;;2.13;;
50946;SDS011;36955;47.416;7.716;2022-10-17T08:41:09;2.95;;;2.20;;
50946;SDS011;36955;47.416;7.716;2022-10-17T08:46:58;2.08;;;1.80;;
50946;SDS011;36955;47.416;7.716;2022-10-17T08:52:08;3.00;;;1.70;;
50946;SDS011;36955;47.416;7.716;2022-10-17T08:54:40;3.30;;;1.60;;
50946;SDS011;36955;47.416;7.716;2022-10-17T08:57:13;4.38;;;1.83;;
50946;SDS011;36955;47.416;7.716;2022-10-17T08:59:41;4.53;;;2.00;;
50946;SDS011;36955;47.416;7.716;2022-10-17T09:07:51;3.58;;;1.88;;
50946;SDS011;36955;47.416;7.716;2022-10-17T09:18:48;3.75;;;2.33;;
50946;SDS011;36955;47.416;7.716;2022-10-17T09:24:12;3.40;;;1.87;;
50946;SDS011;36955;47.416;7.716;2022-10-17T09:26:46;4.43;;;2.03;;
50946;SDS011;36955;47.416;7.716;2022-10-17T09:29:22;2.60;;;1.90;;
50946;SDS011;36955;47.416;7.716;2022-10-17T09:31:52;2.53;;;1.90;;
50946;SDS011;36955;47.416;7.716;2022-10-17T09:34:35;4.25;;;2.05;;
50946;SDS011;36955;47.416;7.716;2022-10-17T09:37:01;6.00;;;2.13;;
50946;SDS011;36955;47.416;7.716;2022-10-17T09:39:28;4.60;;;1.83;;
50946;SDS011;36955;47.416;7.716;2022-10-17T09:41:55;3.00;;;1.85;;
50946;SDS011;36955;47.416;7.716;2022-10-17T09:44:24;3.58;;;2.00;;
50946;SDS011;36955;47.416;7.716;2022-10-17T09:49:47;5.20;;;2.17;;
50946;SDS011;36955;47.416;7.716;2022-10-17T09:54:50;2.70;;;1.75;;
50946;SDS011;36955;47.416;7.716;2022-10-17T09:57:19;3.80;;;1.80;;
50946;SDS011;36955;47.416;7.716;2022-10-17T09:59:57;2.63;;;2.05;;
50946;SDS011;36955;47.416;7.716;2022-10-17T10:02:25;7.07;;;2.17;;
50946;SDS011;36955;47.416;7.716;2022-10-17T10:04:54;3.47;;;2.13;;
50946;SDS011;36955;47.416;7.716;2022-10-17T10:09:56;3.38;;;2.35;;
50946;SDS011;36955;47.416;7.716;2022-10-17T10:12:27;4.43;;;1.95;;
50946;SDS011;36955;47.416;7.716;2022-10-17T10:14:56;5.93;;;2.35;;
50946;SDS011;36955;47.416;7.716;2022-10-17T10:20:00;9.55;;;3.35;;
50946;SDS011;36955;47.416;7.716;2022-10-17T10:22:28;9.38;;;4.05;;
50946;SDS011;36955;47.416;7.716;2022-10-17T10:27:38;17.88;;;9.52;;
50946;SDS011;36955;47.416;7.716;2022-10-17T10:30:05;10.73;;;2.83;;
50946;SDS011;36955;47.416;7.716;2022-10-17T10:32:40;10.88;;;5.00;;
50946;SDS011;36955;47.416;7.716;2022-10-17T10:37:46;4.15;;;2.13;;
50946;SDS011;36955;47.416;7.716;2022-10-17T10:40:19;5.10;;;2.42;;
50946;SDS011;36955;47.416;7.716;2022-10-17T10:43:00;3.38;;;2.90;;
50946;SDS011;36955;47.416;7.716;2022-10-17T10:45:28;7.88;;;2.83;;
50946;SDS011;36955;47.416;7.716;2022-10-17T10:47:55;3.63;;;2.50;;
50946;SDS011;36955;47.416;7.716;2022-10-17T10:50:25;4.93;;;3.25;;
50946;SDS011;36955;47.416;7.716;2022-10-17T10:56:07;5.70;;;2.90;;
50946;SDS011;36955;47.416;7.716;2022-10-17T10:58:56;2.95;;;2.50;;
50946;SDS011;36955;47.416;7.716;2022-10-17T11:04:07;7.80;;;2.53;;
50946;SDS011;36955;47.416;7.716;2022-10-17T11:09:48;6.80;;;2.47;;
50946;SDS011;36955;47.416;7.716;2022-10-17T11:12:17;3.27;;;2.10;;
50946;SDS011;36955;47.416;7.716;2022-10-17T11:20:20;4.07;;;2.60;;
50946;SDS011;36955;47.416;7.716;2022-10-17T11:22:59;3.83;;;2.30;;
50946;SDS011;36955;47.416;7.716;2022-10-17T11:25:37;4.88;;;2.75;;
50946;SDS011;36955;47.416;7.716;2022-10-17T11:28:12;2.85;;;2.20;;
50946;SDS011;36955;47.416;7.716;2022-10-17T11:30:45;4.53;;;2.67;;
50946;SDS011;36955;47.416;7.716;2022-10-17T11:33:14;2.33;;;2.08;;
50946;SDS011;36955;47.416;7.716;2022-10-17T11:35:46;7.32;;;2.75;;
50946;SDS011;36955;47.416;7.716;2022-10-17T11:41:07;6.85;;;2.65;;
50946;SDS011;36955;47.416;7.716;2022-10-17T11:43:53;5.72;;;2.70;;
50946;SDS011;36955;47.416;7.716;2022-10-17T11:46:29;7.07;;;2.90;;
50946;SDS011;36955;47.416;7.716;2022-10-17T11:49:11;4.63;;;2.67;;
50946;SDS011;36955;47.416;7.716;2022-10-17T12:05:24;3.20;;;2.13;;
50946;SDS011;36955;47.416;7.716;2022-10-17T12:08:07;3.75;;;2.38;;
50946;SDS011;36955;47.416;7.716;2022-10-17T12:15:57;5.05;;;2.35;;
50946;SDS011;36955;47.416;7.716;2022-10-17T12:18:41;3.40;;;1.92;;
50946;SDS011;36955;47.416;7.716;2022-10-17T12:21:08;7.43;;;1.98;;
50946;SDS011;36955;47.416;7.716;2022-10-17T12:23:34;2.72;;;1.90;;
50946;SDS011;36955;47.416;7.716;2022-10-17T12:26:03;4.35;;;2.50;;
50946;SDS011;36955;47.416;7.716;2022-10-17T12:28:40;6.53;;;1.77;;
50946;SDS011;36955;47.416;7.716;2022-10-17T12:33:53;1.73;;;1.47;;
50946;SDS011;36955;47.416;7.716;2022-10-17T12:38:47;3.13;;;1.70;;
50946;SDS011;36955;47.416;7.716;2022-10-17T12:57:29;8.05;;;2.00;;
50946;SDS011;36955;47.416;7.716;2022-10-17T13:02:59;7.80;;;2.30;;
50946;SDS011;36955;47.416;7.716;2022-10-17T13:05:36;5.30;;;2.58;;
50946;SDS011;36955;47.416;7.716;2022-10-17T13:08:12;3.08;;;2.38;;
50946;SDS011;36955;47.416;7.716;2022-10-17T13:10:43;4.80;;;2.00;;
50946;SDS011;36955;47.416;7.716;2022-10-17T13:15:48;4.72;;;2.10;;
50946;SDS011;36955;47.416;7.716;2022-10-17T13:18:17;6.15;;;2.50;;
50946;SDS011;36955;47.416;7.716;2022-10-17T13:20:55;4.95;;;2.30;;
50946;SDS011;36955;47.416;7.716;2022-10-17T13:23:24;3.00;;;2.22;;
50946;SDS011;36955;47.416;7.716;2022-10-17T13:31:38;6.60;;;2.08;;
50946;SDS011;36955;47.416;7.716;2022-10-17T13:34:14;6.65;;;2.20;;
50946;SDS011;36955;47.416;7.716;2022-10-17T13:36:42;6.78;;;2.13;;
50946;SDS011;36955;47.416;7.716;2022-10-17T13:39:12;5.32;;;2.10;;
50946;SDS011;36955;47.416;7.716;2022-10-17T13:41:42;3.25;;;2.22;;
50946;SDS011;36955;47.416;7.716;2022-10-17T13:47:19;4.68;;;2.20;;
50946;SDS011;36955;47.416;7.716;2022-10-17T13:49:56;4.00;;;2.25;;
50946;SDS011;36955;47.416;7.716;2022-10-17T13:52:24;4.70;;;2.20;;
50946;SDS011;36955;47.416;7.716;2022-10-17T13:54:52;5.70;;;2.30;;
50946;SDS011;36955;47.416;7.716;2022-10-17T13:57:20;2.88;;;2.47;;
50946;SDS011;36955;47.416;7.716;2022-10-17T13:59:51;5.93;;;2.33;;
50946;SDS011;36955;47.416;7.716;2022-10-17T14:02:21;5.45;;;2.30;;
50946;SDS011;36955;47.416;7.716;2022-10-17T14:04:59;5.65;;;2.53;;
50946;SDS011;36955;47.416;7.716;2022-10-17T14:07:56;3.90;;;2.13;;
50946;SDS011;36955;47.416;7.716;2022-10-17T14:12:55;6.00;;;2.10;;
50946;SDS011;36955;47.416;7.716;2022-10-17T14:15:26;4.60;;;2.38;;
50946;SDS011;36955;47.416;7.716;2022-10-17T14:17:55;6.07;;;2.08;;
50946;SDS011;36955;47.416;7.716;2022-10-17T14:20:26;7.00;;;2.10;;
50946;SDS011;36955;47.416;7.716;2022-10-17T14:22:53;4.63;;;2.22;;
50946;SDS011;36955;47.416;7.716;2022-10-17T14:25:26;7.90;;;2.28;;
50946;SDS011;36955;47.416;7.716;2022-10-17T14:28:00;4.45;;;2.35;;
50946;SDS011;36955;47.416;7.716;2022-10-17T14:30:33;3.17;;;2.17;;
50946;SDS011;36955;47.416;7.716;2022-10-17T14:33:01;3.38;;;2.00;;
50946;SDS011;36955;47.416;7.716;2022-10-17T14:35:31;3.42;;;2.00;;
50946;SDS011;36955;47.416;7.716;2022-10-17T14:37:58;4.47;;;2.10;;
50946;SDS011;36955;47.416;7.716;2022-10-17T14:40:27;4.80;;;1.92;;
50946;SDS011;36955;47.416;7.716;2022-10-17T14:42:58;5.63;;;2.13;;
50946;SDS011;36955;47.416;7.716;2022-10-17T14:45:29;5.30;;;2.33;;
50946;SDS011;36955;47.416;7.716;2022-10-17T14:48:05;8.33;;;2.33;;
50946;SDS011;36955;47.416;7.716;2022-10-17T14:50:35;2.90;;;1.67;;
50946;SDS011;36955;47.416;7.716;2022-10-17T14:53:03;3.95;;;2.15;;
50946;SDS011;36955;47.416;7.716;2022-10-17T14:55:30;8.38;;;2.60;;
50946;SDS011;36955;47.416;7.716;2022-10-17T14:57:58;8.55;;;2.70;;
50946;SDS011;36955;47.416;7.716;2022-10-17T15:00:24;3.90;;;1.80;;
50946;SDS011;36955;47.416;7.716;2022-10-17T15:02:51;5.68;;;2.20;;
50946;SDS011;36955;47.416;7.716;2022-10-17T15:05:19;3.35;;;1.90;;
50946;SDS011;36955;47.416;7.716;2022-10-17T15:07:45;6.75;;;2.13;;
50946;SDS011;36955;47.416;7.716;2022-10-17T15:10:26;9.20;;;5.20;;
50946;SDS011;36955;47.416;7.716;2022-10-17T15:13:00;4.75;;;2.40;;
50946;SDS011;36955;47.416;7.716;2022-10-17T15:15:27;6.57;;;2.60;;
50946;SDS011;36955;47.416;7.716;2022-10-17T15:17:54;7.47;;;3.10;;
50946;SDS011;36955;47.416;7.716;2022-10-17T15:20:21;5.20;;;2.00;;
50946;SDS011;36955;47.416;7.716;2022-10-17T15:22:48;4.82;;;2.20;;
50946;SDS011;36955;47.416;7.716;2022-10-17T15:25:14;2.13;;;1.60;;
50946;SDS011;36955;47.416;7.716;2022-10-17T15:27:40;6.72;;;2.35;;
50946;SDS011;36955;47.416;7.716;2022-10-17T15:30:13;5.00;;;2.10;;
50946;SDS011;36955;47.416;7.716;2022-10-17T15:32:46;3.97;;;1.75;;
50946;SDS011;36955;47.416;7.716;2022-10-17T15:35:13;9.00;;;2.10;;
50946;SDS011;36955;47.416;7.716;2022-10-17T15:37:39;5.82;;;2.10;;
50946;SDS011;36955;47.416;7.716;2022-10-17T15:40:05;7.72;;;2.10;;
50946;SDS011;36955;47.416;7.716;2022-10-17T15:42:35;5.78;;;2.15;;
50946;SDS011;36955;47.416;7.716;2022-10-17T15:45:01;5.97;;;2.80;;
50946;SDS011;36955;47.416;7.716;2022-10-17T15:47:28;3.83;;;1.85;;
50946;SDS011;36955;47.416;7.716;2022-10-17T15:49:56;4.65;;;2.38;;
50946;SDS011;36955;47.416;7.716;2022-10-17T15:52:22;3.97;;;2.55;;
50946;SDS011;36955;47.416;7.716;2022-10-17T15:54:48;4.47;;;2.17;;
50946;SDS011;36955;47.416;7.716;2022-10-17T15:57:15;8.77;;;5.67;;
50946;SDS011;36955;47.416;7.716;2022-10-17T15:59:44;8.35;;;2.38;;
50946;SDS011;36955;47.416;7.716;2022-10-17T16:02:15;6.10;;;2.08;;
50946;SDS011;36955;47.416;7.716;2022-10-17T16:04:42;4.47;;;2.05;;
50946;SDS011;36955;47.416;7.716;2022-10-17T16:07:08;4.00;;;1.98;;
50946;SDS011;36955;47.416;7.716;2022-10-17T16:09:35;11.18;;;2.28;;
50946;SDS011;36955;47.416;7.716;2022-10-17T16:12:02;3.35;;;2.08;;
50946;SDS011;36955;47.416;7.716;2022-10-17T16:14:29;5.07;;;2.15;;
50946;SDS011;36955;47.416;7.716;2022-10-17T16:16:55;12.02;;;2.25;;
50946;SDS011;36955;47.416;7.716;2022-10-17T16:19:21;8.00;;;2.30;;
50946;SDS011;36955;47.416;7.716;2022-10-17T16:21:47;7.97;;;3.00;;
50946;SDS011;36955;47.416;7.716;2022-10-17T16:24:14;6.05;;;2.65;;
50946;SDS011;36955;47.416;7.716;2022-10-17T16:26:40;5.50;;;2.58;;
50946;SDS011;36955;47.416;7.716;2022-10-17T16:29:06;3.60;;;2.50;;
50946;SDS011;36955;47.416;7.716;2022-10-17T16:31:33;7.10;;;2.50;;
50946;SDS011;36955;47.416;7.716;2022-10-17T16:34:01;6.22;;;2.28;;
50946;SDS011;36955;47.416;7.716;2022-10-17T16:36:27;7.82;;;2.53;;
50946;SDS011;36955;47.416;7.716;2022-10-17T16:38:53;8.35;;;2.50;;
50946;SDS011;36955;47.416;7.716;2022-10-17T16:41:28;3.93;;;2.20;;
50946;SDS011;36955;47.416;7.716;2022-10-17T16:43:56;8.48;;;2.55;;
50946;SDS011;36955;47.416;7.716;2022-10-17T16:46:24;8.00;;;2.17;;
50946;SDS011;36955;47.416;7.716;2022-10-17T16:48:51;6.28;;;2.00;;
50946;SDS011;36955;47.416;7.716;2022-10-17T16:51:18;4.03;;;1.90;;
50946;SDS011;36955;47.416;7.716;2022-10-17T16:53:45;4.20;;;1.90;;
50946;SDS011;36955;47.416;7.716;2022-10-17T16:56:15;11.80;;;2.45;;
50946;SDS011;36955;47.416;7.716;2022-10-17T16:58:44;10.68;;;2.20;;
50946;SDS011;36955;47.416;7.716;2022-10-17T17:01:12;46.80;;;31.00;;
50946;SDS011;36955;47.416;7.716;2022-10-17T17:03:40;15.75;;;9.18;;
50946;SDS011;36955;47.416;7.716;2022-10-17T17:06:08;7.53;;;4.88;;
50946;SDS011;36955;47.416;7.716;2022-10-17T17:08:37;4.15;;;2.33;;
50946;SDS011;36955;47.416;7.716;2022-10-17T17:11:07;6.82;;;2.53;;
50946;SDS011;36955;47.416;7.716;2022-10-17T17:13:34;7.13;;;2.42;;
50946;SDS011;36955;47.416;7.716;2022-10-17T17:16:11;7.53;;;2.50;;
50946;SDS011;36955;47.416;7.716;2022-10-17T17:18:40;5.95;;;3.00;;
50946;SDS011;36955;47.416;7.716;2022-10-17T17:21:07;5.40;;;3.38;;
50946;SDS011;36955;47.416;7.716;2022-10-17T17:23:34;9.88;;;4.88;;
50946;SDS011;36955;47.416;7.716;2022-10-17T17:26:03;7.47;;;3.72;;